El Paso, TX (88520)

9:19 PM MDT on August 20, 2014 (GMT -0600)
SAN CLEMENTE ESTATES | Change Station
CLOSE
Current Station
Personal Weather Station
Location: EL PASO, TX
Elevation: 4606 ft
Nearby Weather Stations

Elev 4606 ft 31.82 °N, 106.50 °W | Updated 5 seconds ago

Partly Cloudy
Partly Cloudy
79.3 °F
Feels Like 79 °F
N
0.9
Wind Variable Wind from North
Gusts 1.6 mph

Today
High -- | Low -- °F
--% Chance of Precip.
Yesterday
High -- | Low -- °F
Precip. -- in
6:33 AM 7:43 PM
Waning Crescent, 17% visible
Pressure 29.97 in
Visibility 10.0 miles
Clouds Few 8000 ft
Few 25000 ft
Heat Index 79 °F
Dew Point 47 °F
Humidity 32%
Rainfall 0.37 in
Snow Depth Not available.
UV 0.0 out of 12
Pollen 6.90 out of 12
Air Quality Not available.
Flu Activity Not available.
METAR KELP 210251Z 26011KT 10SM FEW080 FEW250 30/07 A2997

More Conditions Fewer Conditions

Pressure 29.97 in
Visibility 10.0 miles
Clouds Few 8000 ft
Few 25000 ft
Heat Index 79 °F
Dew Point 47 °F
Humidity 32%
Rainfall 0.37 in
Snow Depth Not available.
UV 0.0 out of 12
Pollen 6.90 out of 12
Air Quality Not available.
Flu Activity Not available.
METAR KELP 210251Z 26011KT 10SM FEW080 FEW250 30/07 A2997

More Conditions Fewer Conditions

10-Day Weather Forecast

Almanac

Astronomy

Aug. 20, 2014 Rise Set
Actual Time 6:33 AM MDT 7:43 PM MDT
Civil Twilight 6:08 AM MDT 8:09 PM MDT
Nautical Twilight 5:38 AM MDT 8:39 PM MDT
Astronomical Twilight 5:06 AM MDT 9:10 PM MDT
Moon 2:22 AM MDT (8/20) 4:24 PM MDT (8/20)
Length of Visible Light 14h 00m
Length of Day
13h 10m
Tomorrow will be 1m 46s shorter.
Waning Crescent, 17% of the Moon is Illuminated
Today
Waning Crescent
Aug 25
New
Sep 2
First Quarter
Sep 8
Full
Sep 15
Last Quarter

Today's Extremes

State Highs State Lows

Community

WunderPhotos

Upload Photos

1,745,843 photos uploaded!

Nearby

Snow Depth

Station Depth Elevation
No new snow has been reported.

Earthquake Activity

City Distance Mag. Time & Date
No recent earthquake activity has been reported nearby.
Minimum magnitude displayed is 2.5.

Coastal Water Temperatures

Place Temperature
No Stations Reporting

Nearby Weather Stations